sensor_id;sensor_type;location;lat;lon;timestamp;P1;durP1;ratioP1;P2;durP2;ratioP2
25439;SDS011;13365;52.208;5.488;2023-08-31T00:00:33;2.03;;;1.08;;
25439;SDS011;13365;52.208;5.488;2023-08-31T00:02:59;2.90;;;1.45;;
25439;SDS011;13365;52.208;5.488;2023-08-31T00:05:25;2.70;;;1.15;;
25439;SDS011;13365;52.208;5.488;2023-08-31T00:07:53;1.67;;;1.10;;
25439;SDS011;13365;52.208;5.488;2023-08-31T00:10:19;3.63;;;1.50;;
25439;SDS011;13365;52.208;5.488;2023-08-31T00:12:45;6.97;;;2.17;;
25439;SDS011;13365;52.208;5.488;2023-08-31T00:15:10;2.63;;;1.30;;
25439;SDS011;13365;52.208;5.488;2023-08-31T00:17:36;2.05;;;1.33;;
25439;SDS011;13365;52.208;5.488;2023-08-31T00:20:03;2.45;;;1.48;;
25439;SDS011;13365;52.208;5.488;2023-08-31T00:22:31;2.63;;;1.40;;
25439;SDS011;13365;52.208;5.488;2023-08-31T00:24:56;2.72;;;1.20;;
25439;SDS011;13365;52.208;5.488;2023-08-31T00:27:22;2.80;;;1.67;;
25439;SDS011;13365;52.208;5.488;2023-08-31T00:29:48;4.05;;;1.90;;
25439;SDS011;13365;52.208;5.488;2023-08-31T00:32:14;4.28;;;2.28;;
25439;SDS011;13365;52.208;5.488;2023-08-31T00:34:40;3.45;;;1.60;;
25439;SDS011;13365;52.208;5.488;2023-08-31T00:37:05;3.45;;;1.70;;
25439;SDS011;13365;52.208;5.488;2023-08-31T00:39:31;8.57;;;1.70;;
25439;SDS011;13365;52.208;5.488;2023-08-31T00:41:58;2.72;;;1.70;;
25439;SDS011;13365;52.208;5.488;2023-08-31T00:44:24;14.52;;;1.95;;
25439;SDS011;13365;52.208;5.488;2023-08-31T00:46:49;3.95;;;1.92;;
25439;SDS011;13365;52.208;5.488;2023-08-31T00:49:15;8.05;;;1.73;;
25439;SDS011;13365;52.208;5.488;2023-08-31T00:51:41;5.07;;;1.73;;
25439;SDS011;13365;52.208;5.488;2023-08-31T00:54:13;2.88;;;1.80;;
25439;SDS011;13365;52.208;5.488;2023-08-31T00:56:39;3.17;;;1.90;;
25439;SDS011;13365;52.208;5.488;2023-08-31T00:59:04;6.30;;;2.47;;
25439;SDS011;13365;52.208;5.488;2023-08-31T01:01:36;4.68;;;2.20;;
25439;SDS011;13365;52.208;5.488;2023-08-31T01:04:12;3.38;;;1.92;;
25439;SDS011;13365;52.208;5.488;2023-08-31T01:06:59;4.68;;;2.40;;
25439;SDS011;13365;52.208;5.488;2023-08-31T01:14:59;2.60;;;1.60;;
25439;SDS011;13365;52.208;5.488;2023-08-31T01:17:32;14.23;;;2.63;;
25439;SDS011;13365;52.208;5.488;2023-08-31T01:20:02;4.90;;;2.53;;
25439;SDS011;13365;52.208;5.488;2023-08-31T01:22:43;6.88;;;2.42;;
25439;SDS011;13365;52.208;5.488;2023-08-31T01:25:18;8.25;;;2.40;;
25439;SDS011;13365;52.208;5.488;2023-08-31T01:27:44;4.38;;;2.20;;
25439;SDS011;13365;52.208;5.488;2023-08-31T01:30:09;5.60;;;3.05;;
25439;SDS011;13365;52.208;5.488;2023-08-31T01:32:36;7.65;;;2.80;;
25439;SDS011;13365;52.208;5.488;2023-08-31T01:35:02;10.30;;;3.03;;
25439;SDS011;13365;52.208;5.488;2023-08-31T01:37:36;8.40;;;3.85;;
25439;SDS011;13365;52.208;5.488;2023-08-31T01:40:13;7.47;;;3.78;;
25439;SDS011;13365;52.208;5.488;2023-08-31T01:42:42;6.80;;;2.42;;
25439;SDS011;13365;52.208;5.488;2023-08-31T01:45:09;4.45;;;1.65;;
25439;SDS011;13365;52.208;5.488;2023-08-31T01:47:36;4.43;;;2.92;;
25439;SDS011;13365;52.208;5.488;2023-08-31T01:50:01;5.43;;;1.85;;
25439;SDS011;13365;52.208;5.488;2023-08-31T01:52:27;3.70;;;2.10;;
25439;SDS011;13365;52.208;5.488;2023-08-31T01:54:52;5.40;;;2.65;;
25439;SDS011;13365;52.208;5.488;2023-08-31T01:57:18;5.97;;;3.42;;
25439;SDS011;13365;52.208;5.488;2023-08-31T01:59:44;6.07;;;3.53;;
25439;SDS011;13365;52.208;5.488;2023-08-31T02:02:09;5.60;;;3.35;;
25439;SDS011;13365;52.208;5.488;2023-08-31T02:04:35;4.82;;;2.92;;
25439;SDS011;13365;52.208;5.488;2023-08-31T02:07:00;5.18;;;3.33;;
25439;SDS011;13365;52.208;5.488;2023-08-31T02:09:26;4.43;;;2.97;;
25439;SDS011;13365;52.208;5.488;2023-08-31T02:11:51;2.97;;;1.85;;
25439;SDS011;13365;52.208;5.488;2023-08-31T02:14:17;3.53;;;1.23;;
25439;SDS011;13365;52.208;5.488;2023-08-31T02:16:43;4.38;;;1.42;;
25439;SDS011;13365;52.208;5.488;2023-08-31T02:19:09;4.28;;;0.88;;
25439;SDS011;13365;52.208;5.488;2023-08-31T02:21:34;2.20;;;1.27;;
25439;SDS011;13365;52.208;5.488;2023-08-31T02:24:00;3.20;;;1.30;;
25439;SDS011;13365;52.208;5.488;2023-08-31T02:26:25;4.53;;;1.63;;
25439;SDS011;13365;52.208;5.488;2023-08-31T02:28:51;4.28;;;1.55;;
25439;SDS011;13365;52.208;5.488;2023-08-31T02:31:16;6.95;;;1.45;;
25439;SDS011;13365;52.208;5.488;2023-08-31T02:33:43;4.38;;;1.65;;
25439;SDS011;13365;52.208;5.488;2023-08-31T02:36:11;9.25;;;1.50;;
25439;SDS011;13365;52.208;5.488;2023-08-31T02:38:36;5.00;;;2.17;;
25439;SDS011;13365;52.208;5.488;2023-08-31T02:41:02;1.85;;;1.40;;
25439;SDS011;13365;52.208;5.488;2023-08-31T02:43:27;8.73;;;1.80;;
25439;SDS011;13365;52.208;5.488;2023-08-31T02:46:00;3.35;;;2.20;;
25439;SDS011;13365;52.208;5.488;2023-08-31T02:48:26;6.32;;;2.42;;
25439;SDS011;13365;52.208;5.488;2023-08-31T02:50:53;3.03;;;2.40;;
25439;SDS011;13365;52.208;5.488;2023-08-31T02:53:18;4.65;;;2.58;;
25439;SDS011;13365;52.208;5.488;2023-08-31T02:55:44;3.80;;;2.50;;
25439;SDS011;13365;52.208;5.488;2023-08-31T02:58:10;3.42;;;2.72;;
25439;SDS011;13365;52.208;5.488;2023-08-31T03:00:36;9.90;;;2.80;;
25439;SDS011;13365;52.208;5.488;2023-08-31T03:03:04;4.70;;;2.72;;
25439;SDS011;13365;52.208;5.488;2023-08-31T03:05:30;3.83;;;2.63;;
25439;SDS011;13365;52.208;5.488;2023-08-31T03:07:55;3.55;;;2.60;;
25439;SDS011;13365;52.208;5.488;2023-08-31T03:10:22;7.93;;;2.80;;
25439;SDS011;13365;52.208;5.488;2023-08-31T03:12:47;2.83;;;2.33;;
25439;SDS011;13365;52.208;5.488;2023-08-31T03:15:13;7.22;;;2.60;;
25439;SDS011;13365;52.208;5.488;2023-08-31T03:17:38;6.82;;;2.95;;
25439;SDS011;13365;52.208;5.488;2023-08-31T03:20:04;5.32;;;2.92;;
25439;SDS011;13365;52.208;5.488;2023-08-31T03:22:31;6.57;;;3.20;;
25439;SDS011;13365;52.208;5.488;2023-08-31T03:24:56;7.88;;;2.97;;
25439;SDS011;13365;52.208;5.488;2023-08-31T03:27:22;7.38;;;3.45;;
25439;SDS011;13365;52.208;5.488;2023-08-31T03:29:47;5.35;;;3.50;;
25439;SDS011;13365;52.208;5.488;2023-08-31T03:32:13;6.55;;;3.97;;
25439;SDS011;13365;52.208;5.488;2023-08-31T03:34:39;8.43;;;3.75;;
25439;SDS011;13365;52.208;5.488;2023-08-31T03:37:04;12.43;;;4.18;;
25439;SDS011;13365;52.208;5.488;2023-08-31T03:39:30;13.73;;;3.40;;
25439;SDS011;13365;52.208;5.488;2023-08-31T03:41:56;5.80;;;2.83;;
25439;SDS011;13365;52.208;5.488;2023-08-31T03:44:21;4.95;;;3.05;;
25439;SDS011;13365;52.208;5.488;2023-08-31T03:46:47;11.48;;;2.88;;
25439;SDS011;13365;52.208;5.488;2023-08-31T03:49:12;3.38;;;2.35;;
25439;SDS011;13365;52.208;5.488;2023-08-31T03:51:38;4.55;;;2.20;;
25439;SDS011;13365;52.208;5.488;2023-08-31T03:54:03;7.78;;;1.48;;
25439;SDS011;13365;52.208;5.488;2023-08-31T03:56:29;4.50;;;1.80;;
25439;SDS011;13365;52.208;5.488;2023-08-31T03:58:54;3.53;;;1.70;;
25439;SDS011;13365;52.208;5.488;2023-08-31T04:01:20;2.42;;;1.30;;
25439;SDS011;13365;52.208;5.488;2023-08-31T04:03:45;6.43;;;1.58;;
25439;SDS011;13365;52.208;5.488;2023-08-31T04:06:11;3.65;;;1.67;;
25439;SDS011;13365;52.208;5.488;2023-08-31T04:08:36;4.85;;;1.77;;
25439;SDS011;13365;52.208;5.488;2023-08-31T04:11:02;2.85;;;1.50;;
25439;SDS011;13365;52.208;5.488;2023-08-31T04:13:28;3.33;;;1.63;;
25439;SDS011;13365;52.208;5.488;2023-08-31T04:15:53;4.97;;;1.42;;
25439;SDS011;13365;52.208;5.488;2023-08-31T04:18:19;5.10;;;1.30;;
25439;SDS011;13365;52.208;5.488;2023-08-31T04:20:49;3.50;;;1.20;;
25439;SDS011;13365;52.208;5.488;2023-08-31T04:23:16;9.60;;;1.40;;
25439;SDS011;13365;52.208;5.488;2023-08-31T04:25:42;3.72;;;1.40;;
25439;SDS011;13365;52.208;5.488;2023-08-31T04:28:07;4.55;;;1.70;;
25439;SDS011;13365;52.208;5.488;2023-08-31T04:30:33;4.28;;;1.95;;
25439;SDS011;13365;52.208;5.488;2023-08-31T04:32:58;2.63;;;1.40;;
25439;SDS011;13365;52.208;5.488;2023-08-31T04:35:24;3.15;;;1.52;;
25439;SDS011;13365;52.208;5.488;2023-08-31T04:37:50;5.43;;;1.75;;
25439;SDS011;13365;52.208;5.488;2023-08-31T04:40:15;6.43;;;1.95;;
25439;SDS011;13365;52.208;5.488;2023-08-31T04:42:41;7.22;;;2.10;;
25439;SDS011;13365;52.208;5.488;2023-08-31T04:45:07;3.90;;;1.98;;
25439;SDS011;13365;52.208;5.488;2023-08-31T04:47:33;5.68;;;2.17;;
25439;SDS011;13365;52.208;5.488;2023-08-31T04:49:59;3.90;;;1.88;;
25439;SDS011;13365;52.208;5.488;2023-08-31T04:52:24;5.18;;;1.92;;
25439;SDS011;13365;52.208;5.488;2023-08-31T04:54:50;2.53;;;1.77;;
25439;SDS011;13365;52.208;5.488;2023-08-31T04:57:15;7.20;;;2.33;;
25439;SDS011;13365;52.208;5.488;2023-08-31T04:59:41;6.97;;;2.15;;
25439;SDS011;13365;52.208;5.488;2023-08-31T05:02:07;5.40;;;1.95;;
25439;SDS011;13365;52.208;5.488;2023-08-31T05:04:32;4.97;;;2.30;;
25439;SDS011;13365;52.208;5.488;2023-08-31T05:06:58;3.40;;;1.73;;
25439;SDS011;13365;52.208;5.488;2023-08-31T05:09:24;6.80;;;2.17;;
25439;SDS011;13365;52.208;5.488;2023-08-31T05:11:50;5.28;;;1.55;;
25439;SDS011;13365;52.208;5.488;2023-08-31T05:14:15;7.43;;;1.70;;
25439;SDS011;13365;52.208;5.488;2023-08-31T05:16:41;6.05;;;1.95;;
25439;SDS011;13365;52.208;5.488;2023-08-31T05:19:06;2.83;;;1.80;;
25439;SDS011;13365;52.208;5.488;2023-08-31T05:21:32;6.03;;;2.13;;
25439;SDS011;13365;52.208;5.488;2023-08-31T05:23:58;7.05;;;1.73;;
25439;SDS011;13365;52.208;5.488;2023-08-31T05:26:23;3.60;;;1.90;;
25439;SDS011;13365;52.208;5.488;2023-08-31T05:28:49;4.07;;;1.88;;
25439;SDS011;13365;52.208;5.488;2023-08-31T05:31:15;5.22;;;1.65;;
25439;SDS011;13365;52.208;5.488;2023-08-31T05:33:40;4.50;;;1.90;;
25439;SDS011;13365;52.208;5.488;2023-08-31T05:36:06;2.88;;;1.30;;
25439;SDS011;13365;52.208;5.488;2023-08-31T05:38:31;5.38;;;2.00;;
25439;SDS011;13365;52.208;5.488;2023-08-31T05:41:06;8.35;;;2.10;;
25439;SDS011;13365;52.208;5.488;2023-08-31T05:43:33;4.78;;;1.63;;
25439;SDS011;13365;52.208;5.488;2023-08-31T05:45:59;5.28;;;2.28;;
25439;SDS011;13365;52.208;5.488;2023-08-31T05:48:24;3.70;;;1.60;;
25439;SDS011;13365;52.208;5.488;2023-08-31T05:50:50;3.22;;;1.52;;
25439;SDS011;13365;52.208;5.488;2023-08-31T05:53:15;4.13;;;1.20;;
25439;SDS011;13365;52.208;5.488;2023-08-31T05:55:41;8.13;;;1.40;;
25439;SDS011;13365;52.208;5.488;2023-08-31T05:58:07;5.38;;;1.52;;
25439;SDS011;13365;52.208;5.488;2023-08-31T06:00:32;4.20;;;1.40;;
25439;SDS011;13365;52.208;5.488;2023-08-31T06:02:58;8.30;;;1.05;;
25439;SDS011;13365;52.208;5.488;2023-08-31T06:05:23;6.20;;;1.27;;
25439;SDS011;13365;52.208;5.488;2023-08-31T06:07:49;4.65;;;1.20;;
25439;SDS011;13365;52.208;5.488;2023-08-31T06:10:15;6.05;;;1.48;;
25439;SDS011;13365;52.208;5.488;2023-08-31T06:12:41;6.50;;;1.27;;
25439;SDS011;13365;52.208;5.488;2023-08-31T06:15:06;3.38;;;1.13;;
25439;SDS011;13365;52.208;5.488;2023-08-31T06:17:32;3.50;;;1.00;;
25439;SDS011;13365;52.208;5.488;2023-08-31T06:19:58;5.15;;;0.90;;
25439;SDS011;13365;52.208;5.488;2023-08-31T06:22:23;3.88;;;0.77;;
25439;SDS011;13365;52.208;5.488;2023-08-31T06:24:49;4.43;;;0.90;;
25439;SDS011;13365;52.208;5.488;2023-08-31T06:27:15;7.32;;;1.40;;
25439;SDS011;13365;52.208;5.488;2023-08-31T06:29:42;2.47;;;1.13;;
25439;SDS011;13365;52.208;5.488;2023-08-31T06:32:08;3.55;;;1.50;;
25439;SDS011;13365;52.208;5.488;2023-08-31T06:34:33;4.03;;;1.70;;
25439;SDS011;13365;52.208;5.488;2023-08-31T06:37:00;2.25;;;1.27;;
25439;SDS011;13365;52.208;5.488;2023-08-31T06:39:25;4.85;;;1.73;;
25439;SDS011;13365;52.208;5.488;2023-08-31T06:41:51;5.75;;;1.80;;
25439;SDS011;13365;52.208;5.488;2023-08-31T06:44:16;5.68;;;1.55;;
25439;SDS011;13365;52.208;5.488;2023-08-31T06:46:42;5.97;;;1.58;;
25439;SDS011;13365;52.208;5.488;2023-08-31T06:49:07;5.38;;;2.35;;
25439;SDS011;13365;52.208;5.488;2023-08-31T06:51:33;6.50;;;2.25;;
25439;SDS011;13365;52.208;5.488;2023-08-31T06:53:59;8.38;;;2.55;;
25439;SDS011;13365;52.208;5.488;2023-08-31T06:56:29;7.82;;;2.67;;
25439;SDS011;13365;52.208;5.488;2023-08-31T06:58:55;7.35;;;2.45;;
25439;SDS011;13365;52.208;5.488;2023-08-31T07:01:20;8.60;;;2.35;;
25439;SDS011;13365;52.208;5.488;2023-08-31T07:03:46;3.78;;;1.70;;
25439;SDS011;13365;52.208;5.488;2023-08-31T07:06:11;2.75;;;1.60;;
25439;SDS011;13365;52.208;5.488;2023-08-31T07:08:37;8.65;;;1.33;;
25439;SDS011;13365;52.208;5.488;2023-08-31T07:11:05;4.40;;;1.67;;
25439;SDS011;13365;52.208;5.488;2023-08-31T07:13:31;9.05;;;1.70;;
25439;SDS011;13365;52.208;5.488;2023-08-31T07:15:57;2.10;;;0.80;;
25439;SDS011;13365;52.208;5.488;2023-08-31T07:18:23;7.97;;;1.23;;
25439;SDS011;13365;52.208;5.488;2023-08-31T07:20:49;10.60;;;1.52;;
25439;SDS011;13365;52.208;5.488;2023-08-31T07:23:14;4.53;;;1.38;;
25439;SDS011;13365;52.208;5.488;2023-08-31T07:25:40;5.00;;;1.20;;
25439;SDS011;13365;52.208;5.488;2023-08-31T07:28:05;7.80;;;1.15;;
25439;SDS011;13365;52.208;5.488;2023-08-31T07:30:31;3.08;;;1.00;;
25439;SDS011;13365;52.208;5.488;2023-08-31T07:32:58;7.22;;;1.20;;
25439;SDS011;13365;52.208;5.488;2023-08-31T07:35:27;5.43;;;1.10;;
25439;SDS011;13365;52.208;5.488;2023-08-31T07:37:53;6.82;;;1.10;;
25439;SDS011;13365;52.208;5.488;2023-08-31T07:40:18;2.53;;;0.90;;
25439;SDS011;13365;52.208;5.488;2023-08-31T07:42:44;2.55;;;0.80;;
25439;SDS011;13365;52.208;5.488;2023-08-31T07:45:09;3.78;;;1.05;;
25439;SDS011;13365;52.208;5.488;2023-08-31T07:47:35;6.63;;;1.55;;
25439;SDS011;13365;52.208;5.488;2023-08-31T07:50:01;3.65;;;1.02;;
25439;SDS011;13365;52.208;5.488;2023-08-31T07:52:28;8.30;;;1.92;;
25439;SDS011;13365;52.208;5.488;2023-08-31T07:54:53;7.75;;;1.30;;
25439;SDS011;13365;52.208;5.488;2023-08-31T07:57:19;9.27;;;1.77;;
25439;SDS011;13365;52.208;5.488;2023-08-31T07:59:45;4.03;;;1.48;;
25439;SDS011;13365;52.208;5.488;2023-08-31T08:02:10;7.95;;;1.80;;
25439;SDS011;13365;52.208;5.488;2023-08-31T08:04:36;5.78;;;1.40;;
25439;SDS011;13365;52.208;5.488;2023-08-31T08:07:01;9.45;;;2.33;;
25439;SDS011;13365;52.208;5.488;2023-08-31T08:09:28;3.80;;;1.27;;
25439;SDS011;13365;52.208;5.488;2023-08-31T08:11:55;6.28;;;2.47;;
25439;SDS011;13365;52.208;5.488;2023-08-31T08:14:20;10.48;;;1.42;;
25439;SDS011;13365;52.208;5.488;2023-08-31T08:16:46;4.10;;;1.70;;
25439;SDS011;13365;52.208;5.488;2023-08-31T08:19:11;9.38;;;1.75;;
25439;SDS011;13365;52.208;5.488;2023-08-31T08:21:37;10.05;;;1.30;;
25439;SDS011;13365;52.208;5.488;2023-08-31T08:24:03;9.65;;;1.50;;
25439;SDS011;13365;52.208;5.488;2023-08-31T08:26:28;5.03;;;1.23;;
25439;SDS011;13365;52.208;5.488;2023-08-31T08:28:54;5.10;;;1.33;;
25439;SDS011;13365;52.208;5.488;2023-08-31T08:31:19;5.10;;;1.50;;
25439;SDS011;13365;52.208;5.488;2023-08-31T08:33:45;6.95;;;1.60;;
25439;SDS011;13365;52.208;5.488;2023-08-31T08:36:10;6.55;;;1.40;;
25439;SDS011;13365;52.208;5.488;2023-08-31T08:38:36;10.48;;;1.80;;
25439;SDS011;13365;52.208;5.488;2023-08-31T08:41:05;5.10;;;1.60;;
25439;SDS011;13365;52.208;5.488;2023-08-31T08:43:33;6.93;;;2.17;;
25439;SDS011;13365;52.208;5.488;2023-08-31T08:46:04;11.27;;;1.65;;
25439;SDS011;13365;52.208;5.488;2023-08-31T08:48:32;4.67;;;2.00;;
25439;SDS011;13365;52.208;5.488;2023-08-31T08:50:59;5.63;;;1.63;;
25439;SDS011;13365;52.208;5.488;2023-08-31T08:53:25;6.28;;;2.08;;
25439;SDS011;13365;52.208;5.488;2023-08-31T08:55:50;7.38;;;2.22;;
25439;SDS011;13365;52.208;5.488;2023-08-31T08:58:17;6.85;;;1.85;;
25439;SDS011;13365;52.208;5.488;2023-08-31T09:00:43;8.18;;;2.70;;
25439;SDS011;13365;52.208;5.488;2023-08-31T09:03:08;4.45;;;2.00;;
25439;SDS011;13365;52.208;5.488;2023-08-31T09:05:34;6.20;;;1.75;;
25439;SDS011;13365;52.208;5.488;2023-08-31T09:08:00;7.25;;;2.35;;
25439;SDS011;13365;52.208;5.488;2023-08-31T09:10:37;4.65;;;1.70;;
25439;SDS011;13365;52.208;5.488;2023-08-31T09:13:08;5.63;;;1.60;;
25439;SDS011;13365;52.208;5.488;2023-08-31T09:15:44;6.45;;;2.60;;
25439;SDS011;13365;52.208;5.488;2023-08-31T09:18:23;4.95;;;1.75;;
25439;SDS011;13365;52.208;5.488;2023-08-31T09:20:49;10.50;;;1.90;;
25439;SDS011;13365;52.208;5.488;2023-08-31T09:23:15;7.35;;;1.75;;
25439;SDS011;13365;52.208;5.488;2023-08-31T09:25:42;5.32;;;1.25;;
25439;SDS011;13365;52.208;5.488;2023-08-31T09:28:18;8.27;;;1.50;;
25439;SDS011;13365;52.208;5.488;2023-08-31T09:30:46;4.05;;;1.17;;
25439;SDS011;13365;52.208;5.488;2023-08-31T09:33:16;8.00;;;1.02;;
25439;SDS011;13365;52.208;5.488;2023-08-31T09:35:49;8.40;;;1.27;;
25439;SDS011;13365;52.208;5.488;2023-08-31T09:38:16;9.18;;;1.98;;
25439;SDS011;13365;52.208;5.488;2023-08-31T09:40:42;2.17;;;0.88;;
25439;SDS011;13365;52.208;5.488;2023-08-31T09:43:08;6.00;;;1.00;;
25439;SDS011;13365;52.208;5.488;2023-08-31T09:45:34;3.65;;;0.90;;
25439;SDS011;13365;52.208;5.488;2023-08-31T09:48:00;15.00;;;2.50;;
25439;SDS011;13365;52.208;5.488;2023-08-31T09:50:31;5.20;;;0.80;;
25439;SDS011;13365;52.208;5.488;2023-08-31T09:53:03;3.28;;;0.80;;
25439;SDS011;13365;52.208;5.488;2023-08-31T09:55:30;5.20;;;0.98;;
25439;SDS011;13365;52.208;5.488;2023-08-31T09:57:58;5.07;;;1.10;;
25439;SDS011;13365;52.208;5.488;2023-08-31T10:00:28;2.13;;;0.57;;
25439;SDS011;13365;52.208;5.488;2023-08-31T10:02:55;6.53;;;1.15;;
25439;SDS011;13365;52.208;5.488;2023-08-31T10:05:25;3.05;;;0.82;;
25439;SDS011;13365;52.208;5.488;2023-08-31T10:07:51;5.03;;;1.13;;
25439;SDS011;13365;52.208;5.488;2023-08-31T10:10:17;5.85;;;1.15;;
25439;SDS011;13365;52.208;5.488;2023-08-31T10:12:44;7.00;;;0.77;;
25439;SDS011;13365;52.208;5.488;2023-08-31T10:15:10;3.72;;;0.68;;
25439;SDS011;13365;52.208;5.488;2023-08-31T10:17:37;3.60;;;0.63;;
25439;SDS011;13365;52.208;5.488;2023-08-31T10:20:04;3.45;;;0.60;;
25439;SDS011;13365;52.208;5.488;2023-08-31T10:22:31;4.78;;;1.08;;
25439;SDS011;13365;52.208;5.488;2023-08-31T10:25:02;1.70;;;0.80;;
25439;SDS011;13365;52.208;5.488;2023-08-31T10:27:29;5.13;;;0.80;;
25439;SDS011;13365;52.208;5.488;2023-08-31T10:30:12;1.77;;;0.60;;
25439;SDS011;13365;52.208;5.488;2023-08-31T10:32:39;1.15;;;0.57;;
25439;SDS011;13365;52.208;5.488;2023-08-31T10:35:05;4.18;;;0.70;;
25439;SDS011;13365;52.208;5.488;2023-08-31T10:37:33;4.82;;;0.93;;
25439;SDS011;13365;52.208;5.488;2023-08-31T10:40:08;4.15;;;0.90;;
25439;SDS011;13365;52.208;5.488;2023-08-31T10:42:46;6.50;;;0.95;;
25439;SDS011;13365;52.208;5.488;2023-08-31T10:45:19;2.30;;;0.50;;
25439;SDS011;13365;52.208;5.488;2023-08-31T10:47:46;1.50;;;0.30;;
25439;SDS011;13365;52.208;5.488;2023-08-31T10:52:48;0.85;;;0.30;;
25439;SDS011;13365;52.208;5.488;2023-08-31T10:55:15;3.03;;;0.50;;
25439;SDS011;13365;52.208;5.488;2023-08-31T10:57:40;8.25;;;0.40;;
25439;SDS011;13365;52.208;5.488;2023-08-31T11:00:06;3.05;;;0.52;;
25439;SDS011;13365;52.208;5.488;2023-08-31T11:05:12;4.20;;;0.60;;
25439;SDS011;13365;52.208;5.488;2023-08-31T11:07:40;2.93;;;0.57;;
25439;SDS011;13365;52.208;5.488;2023-08-31T11:12:35;2.35;;;0.38;;
25439;SDS011;13365;52.208;5.488;2023-08-31T11:15:01;3.03;;;0.50;;
25439;SDS011;13365;52.208;5.488;2023-08-31T11:17:28;1.75;;;0.35;;
25439;SDS011;13365;52.208;5.488;2023-08-31T11:19:54;2.20;;;0.50;;
25439;SDS011;13365;52.208;5.488;2023-08-31T11:22:21;1.10;;;0.60;;
25439;SDS011;13365;52.208;5.488;2023-08-31T11:24:47;7.65;;;0.50;;
25439;SDS011;13365;52.208;5.488;2023-08-31T11:27:12;2.00;;;0.50;;
25439;SDS011;13365;52.208;5.488;2023-08-31T11:29:47;3.80;;;0.40;;
25439;SDS011;13365;52.208;5.488;2023-08-31T11:32:13;3.83;;;0.60;;
25439;SDS011;13365;52.208;5.488;2023-08-31T11:34:43;4.18;;;0.45;;
25439;SDS011;13365;52.208;5.488;2023-08-31T11:37:10;4.57;;;1.30;;
25439;SDS011;13365;52.208;5.488;2023-08-31T11:39:40;1.73;;;0.52;;
25439;SDS011;13365;52.208;5.488;2023-08-31T11:42:06;3.55;;;0.50;;
25439;SDS011;13365;52.208;5.488;2023-08-31T11:44:33;3.22;;;0.50;;
25439;SDS011;13365;52.208;5.488;2023-08-31T11:46:59;0.98;;;0.50;;
25439;SDS011;13365;52.208;5.488;2023-08-31T11:49:25;1.63;;;0.65;;
25439;SDS011;13365;52.208;5.488;2023-08-31T11:51:52;1.63;;;0.50;;
25439;SDS011;13365;52.208;5.488;2023-08-31T11:54:18;2.13;;;0.30;;
25439;SDS011;13365;52.208;5.488;2023-08-31T11:56:45;5.95;;;0.80;;
25439;SDS011;13365;52.208;5.488;2023-08-31T11:59:18;3.13;;;0.85;;
25439;SDS011;13365;52.208;5.488;2023-08-31T12:01:45;2.55;;;0.32;;
25439;SDS011;13365;52.208;5.488;2023-08-31T12:04:12;1.73;;;0.40;;
25439;SDS011;13365;52.208;5.488;2023-08-31T12:06:38;3.65;;;0.88;;
25439;SDS011;13365;52.208;5.488;2023-08-31T12:09:05;5.47;;;0.90;;
25439;SDS011;13365;52.208;5.488;2023-08-31T12:11:32;4.93;;;0.95;;
25439;SDS011;13365;52.208;5.488;2023-08-31T12:14:01;3.42;;;0.75;;
25439;SDS011;13365;52.208;5.488;2023-08-31T12:16:35;1.88;;;0.60;;
25439;SDS011;13365;52.208;5.488;2023-08-31T12:19:04;2.70;;;0.80;;
25439;SDS011;13365;52.208;5.488;2023-08-31T12:21:30;2.08;;;0.50;;
25439;SDS011;13365;52.208;5.488;2023-08-31T12:23:57;1.38;;;0.50;;
25439;SDS011;13365;52.208;5.488;2023-08-31T12:26:28;1.80;;;0.50;;
25439;SDS011;13365;52.208;5.488;2023-08-31T12:28:54;1.80;;;0.45;;
25439;SDS011;13365;52.208;5.488;2023-08-31T12:31:20;2.78;;;0.40;;
25439;SDS011;13365;52.208;5.488;2023-08-31T12:33:47;0.88;;;0.40;;
25439;SDS011;13365;52.208;5.488;2023-08-31T12:36:12;3.67;;;1.08;;
25439;SDS011;13365;52.208;5.488;2023-08-31T12:38:38;3.58;;;0.40;;
25439;SDS011;13365;52.208;5.488;2023-08-31T12:41:04;3.17;;;0.68;;
25439;SDS011;13365;52.208;5.488;2023-08-31T12:43:29;4.20;;;0.80;;
25439;SDS011;13365;52.208;5.488;2023-08-31T12:45:56;2.28;;;0.68;;
25439;SDS011;13365;52.208;5.488;2023-08-31T12:48:22;2.90;;;0.75;;
25439;SDS011;13365;52.208;5.488;2023-08-31T12:50:47;6.32;;;1.25;;
25439;SDS011;13365;52.208;5.488;2023-08-31T12:53:13;0.82;;;0.40;;
25439;SDS011;13365;52.208;5.488;2023-08-31T12:55:39;3.78;;;0.75;;
25439;SDS011;13365;52.208;5.488;2023-08-31T12:58:05;3.20;;;0.40;;
25439;SDS011;13365;52.208;5.488;2023-08-31T13:00:30;1.02;;;0.45;;
25439;SDS011;13365;52.208;5.488;2023-08-31T13:02:56;3.50;;;0.60;;
25439;SDS011;13365;52.208;5.488;2023-08-31T13:05:21;1.15;;;0.63;;
25439;SDS011;13365;52.208;5.488;2023-08-31T13:07:47;1.05;;;0.50;;
25439;SDS011;13365;52.208;5.488;2023-08-31T13:10:12;2.13;;;0.50;;
25439;SDS011;13365;52.208;5.488;2023-08-31T13:12:38;0.88;;;0.40;;
25439;SDS011;13365;52.208;5.488;2023-08-31T13:15:04;2.15;;;0.50;;
25439;SDS011;13365;52.208;5.488;2023-08-31T13:17:30;2.13;;;0.47;;
25439;SDS011;13365;52.208;5.488;2023-08-31T13:19:56;2.85;;;0.57;;
25439;SDS011;13365;52.208;5.488;2023-08-31T13:22:22;3.97;;;1.00;;
25439;SDS011;13365;52.208;5.488;2023-08-31T13:24:49;1.95;;;0.40;;
25439;SDS011;13365;52.208;5.488;2023-08-31T13:27:15;1.85;;;0.40;;
25439;SDS011;13365;52.208;5.488;2023-08-31T13:29:40;7.13;;;0.98;;
25439;SDS011;13365;52.208;5.488;2023-08-31T13:32:06;3.03;;;1.50;;
25439;SDS011;13365;52.208;5.488;2023-08-31T13:34:32;1.55;;;0.85;;
25439;SDS011;13365;52.208;5.488;2023-08-31T13:36:58;1.23;;;0.38;;
25439;SDS011;13365;52.208;5.488;2023-08-31T13:39:23;3.10;;;0.55;;
25439;SDS011;13365;52.208;5.488;2023-08-31T13:41:50;3.28;;;0.40;;
25439;SDS011;13365;52.208;5.488;2023-08-31T13:44:17;5.53;;;0.77;;
25439;SDS011;13365;52.208;5.488;2023-08-31T13:46:42;1.73;;;0.60;;
25439;SDS011;13365;52.208;5.488;2023-08-31T13:49:08;0.82;;;0.30;;
25439;SDS011;13365;52.208;5.488;2023-08-31T13:51:33;3.33;;;0.40;;
25439;SDS011;13365;52.208;5.488;2023-08-31T13:53:59;1.02;;;0.35;;
25439;SDS011;13365;52.208;5.488;2023-08-31T13:56:26;1.67;;;0.63;;
25439;SDS011;13365;52.208;5.488;2023-08-31T13:58:51;2.97;;;0.93;;
25439;SDS011;13365;52.208;5.488;2023-08-31T14:01:17;3.58;;;0.50;;
25439;SDS011;13365;52.208;5.488;2023-08-31T14:03:42;3.05;;;0.40;;
25439;SDS011;13365;52.208;5.488;2023-08-31T14:06:08;2.05;;;0.82;;
25439;SDS011;13365;52.208;5.488;2023-08-31T14:08:33;1.27;;;0.40;;
25439;SDS011;13365;52.208;5.488;2023-08-31T14:10:59;0.85;;;0.40;;
25439;SDS011;13365;52.208;5.488;2023-08-31T14:13:24;2.50;;;0.65;;
25439;SDS011;13365;52.208;5.488;2023-08-31T14:15:50;3.80;;;0.50;;
25439;SDS011;13365;52.208;5.488;2023-08-31T14:18:16;1.40;;;0.55;;
25439;SDS011;13365;52.208;5.488;2023-08-31T14:20:42;2.15;;;0.70;;
25439;SDS011;13365;52.208;5.488;2023-08-31T14:23:08;3.65;;;0.50;;
25439;SDS011;13365;52.208;5.488;2023-08-31T14:25:36;2.75;;;0.77;;
25439;SDS011;13365;52.208;5.488;2023-08-31T14:28:03;4.18;;;0.50;;
25439;SDS011;13365;52.208;5.488;2023-08-31T14:30:29;3.33;;;0.77;;
25439;SDS011;13365;52.208;5.488;2023-08-31T14:32:55;3.75;;;0.45;;
25439;SDS011;13365;52.208;5.488;2023-08-31T14:35:20;3.83;;;0.57;;
25439;SDS011;13365;52.208;5.488;2023-08-31T14:37:46;4.05;;;0.30;;
25439;SDS011;13365;52.208;5.488;2023-08-31T14:40:11;3.60;;;0.30;;
25439;SDS011;13365;52.208;5.488;2023-08-31T14:42:39;1.30;;;0.43;;
25439;SDS011;13365;52.208;5.488;2023-08-31T14:45:05;2.45;;;0.60;;
25439;SDS011;13365;52.208;5.488;2023-08-31T14:47:31;1.80;;;0.60;;
25439;SDS011;13365;52.208;5.488;2023-08-31T14:49:57;2.15;;;0.68;;
25439;SDS011;13365;52.208;5.488;2023-08-31T14:52:22;2.05;;;0.52;;
25439;SDS011;13365;52.208;5.488;2023-08-31T14:54:48;2.92;;;0.40;;
25439;SDS011;13365;52.208;5.488;2023-08-31T14:57:14;3.63;;;0.82;;